createdAt,value
2023-08-10T00:00:54.065Z,2.20
2023-08-10T00:01:53.943Z,2.20
2023-08-10T00:02:53.972Z,2.10
2023-08-10T00:03:53.950Z,2.10
2023-08-10T00:04:53.911Z,2.30
2023-08-10T00:05:53.914Z,2.00
2023-08-10T00:06:53.932Z,2.20
2023-08-10T00:07:53.830Z,2.50
2023-08-10T00:08:53.842Z,2.40
2023-08-10T00:09:53.836Z,2.50
2023-08-10T00:10:53.860Z,2.30
2023-08-10T00:11:53.814Z,2.20
2023-08-10T00:12:53.776Z,2.70
2023-08-10T00:13:53.762Z,2.40
2023-08-10T00:14:53.751Z,2.20
2023-08-10T00:15:53.726Z,2.40
2023-08-10T00:16:53.775Z,2.70
2023-08-10T00:17:53.778Z,2.40
2023-08-10T00:18:53.721Z,2.50
2023-08-10T00:19:53.688Z,2.40
2023-08-10T00:20:53.666Z,2.40
2023-08-10T00:21:53.672Z,2.80
2023-08-10T00:22:53.634Z,2.50
2023-08-10T00:23:53.632Z,2.20
2023-08-10T00:24:53.628Z,2.20
2023-08-10T00:25:53.622Z,1.80
2023-08-10T00:33:17.981Z,2.60
2023-08-10T00:34:13.361Z,2.80
2023-08-10T00:35:12.314Z,3.00
2023-08-10T00:36:12.284Z,2.80
2023-08-10T00:37:12.354Z,3.20
2023-08-10T00:38:12.295Z,2.70
2023-08-10T00:39:12.302Z,2.70
2023-08-10T00:40:12.258Z,2.70
2023-08-10T00:41:12.237Z,2.90
2023-08-10T00:42:12.265Z,2.70
2023-08-10T00:43:12.213Z,2.50
2023-08-10T00:44:12.193Z,2.40
2023-08-10T00:45:12.188Z,3.00
2023-08-10T00:46:12.236Z,2.50
2023-08-10T00:47:12.203Z,2.50
2023-08-10T00:48:12.146Z,2.60
2023-08-10T00:49:12.137Z,2.90
2023-08-10T00:50:12.084Z,2.50
2023-08-10T00:51:12.066Z,2.60
2023-08-10T00:52:12.048Z,2.70
2023-08-10T00:53:12.064Z,2.10
2023-08-10T00:54:12.067Z,2.40
2023-08-10T00:55:12.008Z,2.40
2023-08-10T00:56:11.961Z,2.40
2023-08-10T00:57:11.978Z,2.70
2023-08-10T00:58:11.958Z,2.50
2023-08-10T00:59:11.946Z,2.80
2023-08-10T01:00:11.973Z,2.60
2023-08-10T01:01:11.952Z,2.50
2023-08-10T01:02:11.966Z,3.10
2023-08-10T01:03:11.960Z,3.50
2023-08-10T01:04:11.882Z,3.20
2023-08-10T01:05:11.979Z,3.00
2023-08-10T01:06:11.847Z,2.70
2023-08-10T01:07:11.835Z,2.80
2023-08-10T01:08:11.816Z,3.10
2023-08-10T01:09:11.852Z,3.30
2023-08-10T01:10:11.795Z,3.00
2023-08-10T01:11:11.801Z,2.90
2023-08-10T01:12:11.807Z,3.30
2023-08-10T01:13:11.757Z,3.00
2023-08-10T01:14:11.757Z,2.50
2023-08-10T01:18:45.286Z,2.70
2023-08-10T01:19:45.257Z,2.70
2023-08-10T01:20:45.244Z,2.50
2023-08-10T01:21:45.227Z,2.50
2023-08-10T01:22:45.249Z,3.10
2023-08-10T01:23:45.238Z,2.40
2023-08-10T01:24:45.249Z,2.50
2023-08-10T01:25:45.286Z,2.60
2023-08-10T01:26:45.198Z,2.40
2023-08-10T01:27:45.319Z,3.00
2023-08-10T01:28:45.234Z,2.40
2023-08-10T01:29:45.546Z,2.60
2023-08-10T01:30:45.153Z,2.60
2023-08-10T01:31:45.126Z,2.50
2023-08-10T01:32:45.126Z,2.40
2023-08-10T01:33:45.083Z,2.50
2023-08-10T01:34:45.080Z,2.80
2023-08-10T01:35:45.029Z,2.70
2023-08-10T01:36:45.021Z,3.10
2023-08-10T01:37:44.976Z,2.90
2023-08-10T01:38:45.003Z,2.50
2023-08-10T01:39:45.003Z,3.00
2023-08-10T01:40:44.958Z,2.70
2023-08-10T01:41:44.950Z,2.80
2023-08-10T01:42:51.682Z,3.00
2023-08-10T01:43:44.951Z,2.60
2023-08-10T01:44:44.906Z,2.70
2023-08-10T01:45:44.915Z,2.50
2023-08-10T01:46:44.890Z,2.40
2023-08-10T01:47:44.936Z,2.80
2023-08-10T01:48:47.320Z,2.80
2023-08-10T01:49:44.841Z,3.00
2023-08-10T01:50:44.827Z,2.70
2023-08-10T01:51:44.815Z,2.80
2023-08-10T01:52:44.819Z,3.00
2023-08-10T01:53:44.785Z,3.10
2023-08-10T01:54:44.766Z,2.80
2023-08-10T01:55:44.784Z,2.70
2023-08-10T01:56:44.726Z,3.00
2023-08-10T01:57:44.698Z,2.70
2023-08-10T01:58:44.700Z,3.20
2023-08-10T01:59:44.694Z,3.10
2023-08-10T02:00:44.716Z,2.80
2023-08-10T02:01:44.667Z,2.60
2023-08-10T02:02:44.705Z,2.70
2023-08-10T02:03:44.716Z,3.20
2023-08-10T02:04:44.620Z,3.10
2023-08-10T02:05:44.675Z,3.00
2023-08-10T02:06:44.628Z,2.80
2023-08-10T02:07:44.580Z,2.80
2023-08-10T02:08:44.567Z,2.30
2023-08-10T02:09:44.572Z,2.70
2023-08-10T02:10:44.567Z,2.60
2023-08-10T02:11:44.529Z,2.90
2023-08-10T02:12:44.501Z,3.20
2023-08-10T02:13:44.521Z,2.90
2023-08-10T02:14:44.486Z,3.10
2023-08-10T02:15:44.536Z,3.00
2023-08-10T02:16:44.460Z,2.90
2023-08-10T02:17:44.452Z,3.20
2023-08-10T02:18:44.451Z,3.20
2023-08-10T02:19:44.408Z,2.70
2023-08-10T02:20:44.413Z,2.70
2023-08-10T02:21:44.416Z,3.00
2023-08-10T02:22:44.425Z,2.80
2023-08-10T02:23:44.361Z,2.80
2023-08-10T02:24:44.344Z,3.10
2023-08-10T02:25:44.343Z,3.00
2023-08-10T02:26:44.320Z,2.90
2023-08-10T02:27:44.348Z,2.90
2023-08-10T02:28:44.312Z,3.10
2023-08-10T02:29:44.284Z,3.20
2023-08-10T02:30:44.254Z,3.10
2023-08-10T02:31:44.329Z,2.90
2023-08-10T02:32:44.287Z,3.40
2023-08-10T02:33:44.272Z,3.10
2023-08-10T02:34:44.194Z,2.90
2023-08-10T02:35:44.194Z,3.20
2023-08-10T02:36:44.223Z,3.20
2023-08-10T02:37:44.154Z,3.30
2023-08-10T02:38:44.158Z,3.40
2023-08-10T02:39:44.158Z,3.30
2023-08-10T02:40:44.152Z,3.30
2023-08-10T02:41:44.112Z,2.80
2023-08-10T02:42:44.089Z,3.00
2023-08-10T02:43:44.090Z,3.00
2023-08-10T02:44:44.087Z,3.00
2023-08-10T02:45:44.116Z,2.80
2023-08-10T02:46:44.033Z,3.00
2023-08-10T02:47:44.041Z,3.20
2023-08-10T02:48:43.990Z,3.10
2023-08-10T02:49:44.007Z,3.00
2023-08-10T02:50:44.017Z,2.80
2023-08-10T02:51:43.985Z,2.50
2023-08-10T02:52:43.952Z,2.90
2023-08-10T02:53:43.937Z,2.90
2023-08-10T02:54:43.942Z,2.60
2023-08-10T02:55:43.941Z,2.60
2023-08-10T02:56:43.902Z,3.20
2023-08-10T02:57:43.890Z,3.00
2023-08-10T02:58:43.873Z,2.50
2023-08-10T02:59:43.870Z,3.00
2023-08-10T03:00:43.878Z,2.80
2023-08-10T03:01:43.832Z,3.00
2023-08-10T03:02:43.894Z,3.10
2023-08-10T03:03:43.797Z,2.90
2023-08-10T03:04:43.929Z,3.20
2023-08-10T03:05:43.825Z,3.40
2023-08-10T03:06:43.766Z,3.10
2023-08-10T03:07:43.733Z,2.90
2023-08-10T03:08:43.738Z,3.10
2023-08-10T03:09:43.754Z,3.20
2023-08-10T03:10:43.742Z,3.20
2023-08-10T03:11:43.698Z,2.70
2023-08-10T03:12:43.670Z,2.70
2023-08-10T03:13:43.696Z,3.00
2023-08-10T03:14:43.641Z,3.00
2023-08-10T03:15:43.638Z,3.30
2023-08-10T03:16:43.665Z,3.00
2023-08-10T03:17:43.714Z,3.40
2023-08-10T03:18:43.587Z,3.20
2023-08-10T03:19:43.609Z,3.10
2023-08-10T03:20:43.557Z,2.90
2023-08-10T03:21:43.581Z,2.80
2023-08-10T03:22:43.528Z,3.40
2023-08-10T03:27:17.044Z,2.50
2023-08-10T03:28:17.009Z,2.60
2023-08-10T03:29:16.987Z,2.70
2023-08-10T03:30:16.983Z,2.80
2023-08-10T03:31:17.076Z,3.00
2023-08-10T03:32:16.907Z,2.90
2023-08-10T03:33:16.938Z,2.70
2023-08-10T03:34:16.995Z,2.90
2023-08-10T03:35:16.956Z,3.00
2023-08-10T03:36:16.931Z,3.00
2023-08-10T03:37:16.942Z,3.10
2023-08-10T03:38:16.873Z,3.00
2023-08-10T03:39:16.883Z,3.20
2023-08-10T03:40:16.879Z,3.20
2023-08-10T03:41:16.840Z,3.20
2023-08-10T03:42:16.904Z,3.10
2023-08-10T03:43:16.799Z,2.70
2023-08-10T03:44:16.796Z,2.90
2023-08-10T03:45:16.802Z,3.40
2023-08-10T03:46:16.807Z,2.90
2023-08-10T03:47:16.702Z,3.40
2023-08-10T03:48:16.700Z,3.10
2023-08-10T03:49:16.693Z,3.60
2023-08-10T03:50:16.707Z,2.70
2023-08-10T03:51:16.645Z,3.10
2023-08-10T03:52:16.648Z,3.00
2023-08-10T03:53:16.650Z,2.50
2023-08-10T03:54:16.644Z,2.70
2023-08-10T03:55:16.655Z,2.60
2023-08-10T03:56:16.618Z,2.60
2023-08-10T03:57:16.557Z,2.40
2023-08-10T03:58:16.613Z,2.50
2023-08-10T03:59:16.557Z,2.60
2023-08-10T04:00:16.561Z,2.80
2023-08-10T04:01:16.574Z,2.50
2023-08-10T04:02:16.497Z,3.00
2023-08-10T04:03:16.814Z,2.50
2023-08-10T04:04:16.468Z,2.60
2023-08-10T04:05:16.452Z,2.60
2023-08-10T04:06:16.438Z,2.50
2023-08-10T04:07:16.470Z,2.60
2023-08-10T04:08:16.445Z,2.60
2023-08-10T04:09:16.402Z,2.80
2023-08-10T04:10:16.381Z,2.80
2023-08-10T04:11:16.379Z,2.70
2023-08-10T04:12:16.370Z,2.60
2023-08-10T04:13:16.350Z,3.40
2023-08-10T04:14:16.325Z,3.60
2023-08-10T04:15:16.320Z,3.70
2023-08-10T04:16:16.334Z,3.20
2023-08-10T04:17:16.365Z,3.20
2023-08-10T04:18:16.293Z,3.00
2023-08-10T04:19:17.631Z,3.00
2023-08-10T04:20:16.357Z,3.20
2023-08-10T04:21:16.237Z,2.80
2023-08-10T04:22:16.229Z,2.80
2023-08-10T04:23:16.206Z,3.00
2023-08-10T04:24:16.182Z,3.20
2023-08-10T04:25:16.182Z,3.30
2023-08-10T04:26:16.145Z,3.00
2023-08-10T04:27:16.148Z,2.50
2023-08-10T04:28:16.136Z,3.00
2023-08-10T04:29:16.111Z,3.30
2023-08-10T04:30:16.115Z,2.60
2023-08-10T04:31:16.141Z,2.90
2023-08-10T04:32:16.068Z,2.60
2023-08-10T04:33:16.065Z,2.90
2023-08-10T04:34:16.101Z,2.70
2023-08-10T04:35:16.044Z,2.70
2023-08-10T04:36:16.025Z,2.80
2023-08-10T04:37:15.986Z,3.30
2023-08-10T04:38:16.022Z,3.60
2023-08-10T04:39:15.967Z,3.50
2023-08-10T04:40:17.757Z,3.30
2023-08-10T04:41:15.959Z,3.70
2023-08-10T04:42:15.957Z,3.40
2023-08-10T04:43:15.945Z,4.20
2023-08-10T04:44:15.902Z,4.40
2023-08-10T04:45:15.926Z,4.10
2023-08-10T04:46:15.886Z,4.20
2023-08-10T04:47:15.905Z,5.20
2023-08-10T04:48:15.866Z,5.40
2023-08-10T04:49:15.810Z,5.30
2023-08-10T04:50:15.836Z,5.10
2023-08-10T04:51:15.792Z,4.60
2023-08-10T04:52:15.814Z,5.30
2023-08-10T04:53:15.754Z,4.90
2023-08-10T04:54:15.773Z,4.80
2023-08-10T04:55:15.758Z,5.10
2023-08-10T04:56:17.555Z,5.10
2023-08-10T04:57:15.722Z,4.90
2023-08-10T04:58:15.722Z,4.60
2023-08-10T04:59:15.683Z,5.10
2023-08-10T05:00:15.669Z,5.40
2023-08-10T05:01:15.721Z,4.70
2023-08-10T05:02:15.631Z,4.50
2023-08-10T05:03:15.770Z,5.00
2023-08-10T05:04:15.650Z,4.40
2023-08-10T05:05:15.592Z,4.70
2023-08-10T05:06:15.567Z,4.10
2023-08-10T05:07:15.555Z,4.20
2023-08-10T05:08:15.559Z,4.10
2023-08-10T05:09:15.531Z,4.50
2023-08-10T05:10:15.549Z,4.30
2023-08-10T05:11:15.514Z,4.60
2023-08-10T05:12:15.482Z,4.70
2023-08-10T05:13:15.489Z,4.50
2023-08-10T05:14:15.499Z,4.30
2023-08-10T05:15:15.487Z,4.70
2023-08-10T05:16:15.495Z,4.70
2023-08-10T05:17:15.429Z,4.50
2023-08-10T05:18:15.471Z,4.50
2023-08-10T05:19:15.412Z,4.20
2023-08-10T05:20:15.430Z,4.30
2023-08-10T05:21:15.408Z,4.70
2023-08-10T05:22:15.411Z,4.80
2023-08-10T05:23:15.334Z,4.60
2023-08-10T05:24:15.320Z,4.50
2023-08-10T05:25:18.720Z,4.70
2023-08-10T05:26:15.315Z,4.00
2023-08-10T05:27:15.282Z,3.70
2023-08-10T05:28:15.326Z,4.70
2023-08-10T05:29:15.277Z,4.20
2023-08-10T05:30:15.250Z,4.20
2023-08-10T05:31:15.248Z,4.30
2023-08-10T05:32:16.738Z,4.20
2023-08-10T05:33:15.206Z,4.20
2023-08-10T05:34:15.267Z,4.40
2023-08-10T05:35:15.166Z,4.30
2023-08-10T05:36:16.032Z,4.50
2023-08-10T05:37:15.136Z,4.60
2023-08-10T05:38:15.128Z,4.20
2023-08-10T05:39:15.117Z,5.10
2023-08-10T05:40:15.107Z,4.90
2023-08-10T05:41:15.148Z,6.10
2023-08-10T05:42:15.096Z,5.10
2023-08-10T05:43:15.816Z,4.90
2023-08-10T05:44:15.076Z,5.10
2023-08-10T05:45:15.327Z,4.90
2023-08-10T05:46:15.110Z,5.60
2023-08-10T05:47:15.455Z,4.90
2023-08-10T05:48:15.969Z,5.80
2023-08-10T05:49:15.031Z,6.10
2023-08-10T05:50:16.551Z,5.20
2023-08-10T05:51:21.091Z,5.50
2023-08-10T05:52:14.967Z,5.60
2023-08-10T05:53:14.956Z,6.10
2023-08-10T05:54:15.005Z,5.90
2023-08-10T05:55:15.019Z,5.60
2023-08-10T05:56:14.925Z,5.40
2023-08-10T05:57:14.900Z,5.10
2023-08-10T05:58:14.920Z,5.10
2023-08-10T05:59:14.879Z,5.30
2023-08-10T06:00:14.892Z,5.30
2023-08-10T06:01:14.976Z,5.20
2023-08-10T06:02:14.849Z,5.50
2023-08-10T06:03:14.869Z,5.10
2023-08-10T06:04:14.837Z,5.90
2023-08-10T06:05:14.898Z,5.80
2023-08-10T06:06:14.857Z,5.90
2023-08-10T06:07:14.875Z,5.50
2023-08-10T06:08:14.736Z,6.40
2023-08-10T06:09:14.759Z,5.50
2023-08-10T06:10:14.772Z,5.80
2023-08-10T06:11:16.051Z,5.10
2023-08-10T06:12:14.718Z,5.50
2023-08-10T06:13:14.722Z,5.70
2023-08-10T06:14:14.701Z,5.40
2023-08-10T06:15:14.696Z,5.30
2023-08-10T06:16:14.708Z,4.90
2023-08-10T06:17:14.621Z,5.00
2023-08-10T06:18:14.635Z,5.40
2023-08-10T06:19:14.682Z,4.80
2023-08-10T06:20:14.635Z,5.40
2023-08-10T06:21:14.582Z,5.50
2023-08-10T06:22:14.826Z,4.80
2023-08-10T06:23:14.593Z,4.90
2023-08-10T06:24:14.597Z,4.70
2023-08-10T06:25:14.579Z,5.10
2023-08-10T06:26:14.598Z,5.60
2023-08-10T06:27:14.573Z,5.10
2023-08-10T06:28:14.459Z,5.00
2023-08-10T06:29:14.483Z,6.20
2023-08-10T06:30:14.449Z,5.20
2023-08-10T06:31:14.524Z,4.80
2023-08-10T06:32:14.436Z,5.40
2023-08-10T06:33:25.120Z,5.10
2023-08-10T06:34:14.447Z,4.90
2023-08-10T06:35:14.475Z,4.80
2023-08-10T06:36:14.400Z,4.50
2023-08-10T06:37:14.359Z,4.50
2023-08-10T06:38:14.354Z,4.50
2023-08-10T06:39:14.352Z,4.60
2023-08-10T06:40:14.319Z,5.10
2023-08-10T06:41:14.339Z,5.00
2023-08-10T06:42:14.283Z,4.50
2023-08-10T06:43:14.299Z,5.40
2023-08-10T06:44:14.282Z,4.80
2023-08-10T06:45:14.316Z,4.40
2023-08-10T06:46:14.324Z,4.90
2023-08-10T06:47:14.191Z,4.50
2023-08-10T06:48:16.063Z,4.50
2023-08-10T06:49:14.190Z,4.50
2023-08-10T06:50:14.184Z,3.70
2023-08-10T06:51:14.208Z,3.50
2023-08-10T06:52:14.234Z,3.70
2023-08-10T06:53:14.152Z,3.20
2023-08-10T06:54:14.188Z,3.90
2023-08-10T06:55:14.138Z,4.10
2023-08-10T06:56:14.111Z,3.30
2023-08-10T06:57:14.093Z,3.50
2023-08-10T06:58:44.357Z,3.50
2023-08-10T07:01:14.083Z,3.90
2023-08-10T07:02:14.096Z,4.30
2023-08-10T07:03:14.027Z,3.70
2023-08-10T07:04:13.984Z,3.60
2023-08-10T07:05:14.031Z,3.30
2023-08-10T07:06:14.012Z,3.60
2023-08-10T07:07:13.987Z,3.20
2023-08-10T07:08:13.992Z,3.90
2023-08-10T07:09:13.954Z,4.00
2023-08-10T07:10:13.922Z,3.70
2023-08-10T07:11:13.885Z,3.90
2023-08-10T07:12:13.946Z,4.10
2023-08-10T07:13:13.883Z,3.60
2023-08-10T07:14:13.888Z,3.50
2023-08-10T07:15:13.864Z,3.60
2023-08-10T07:16:14.060Z,3.60
2023-08-10T07:17:13.898Z,3.60
2023-08-10T07:18:13.893Z,3.60
2023-08-10T07:19:13.786Z,3.50
2023-08-10T07:20:13.817Z,3.60
2023-08-10T07:21:13.769Z,2.90
2023-08-10T07:22:13.746Z,2.80
2023-08-10T07:23:13.773Z,3.30
2023-08-10T07:24:13.730Z,2.70
2023-08-10T07:25:13.776Z,2.70
2023-08-10T07:26:13.746Z,3.10
2023-08-10T07:27:14.005Z,3.00
2023-08-10T07:28:13.716Z,3.20
2023-08-10T07:29:13.713Z,2.70
2023-08-10T07:30:13.894Z,3.30
2023-08-10T07:31:13.733Z,2.60
2023-08-10T07:32:13.652Z,2.60
2023-08-10T07:33:13.675Z,3.20
2023-08-10T07:34:13.665Z,3.40
2023-08-10T07:35:13.562Z,3.50
2023-08-10T07:36:13.613Z,2.90
2023-08-10T07:37:13.549Z,3.10
2023-08-10T07:38:13.611Z,3.30
2023-08-10T07:39:13.522Z,3.20
2023-08-10T07:40:13.732Z,3.30
2023-08-10T07:41:13.536Z,3.50
2023-08-10T07:42:13.472Z,2.60
2023-08-10T07:43:13.461Z,2.60
2023-08-10T07:44:13.514Z,2.70
2023-08-10T07:45:13.456Z,2.30
2023-08-10T07:46:13.424Z,2.40
2023-08-10T07:47:13.421Z,2.50
2023-08-10T07:48:13.447Z,2.30
2023-08-10T07:49:13.394Z,2.20
2023-08-10T07:50:13.392Z,2.10
2023-08-10T07:51:13.398Z,2.20
2023-08-10T07:52:13.356Z,2.20
2023-08-10T07:53:13.348Z,1.90
2023-08-10T07:54:13.374Z,1.80
2023-08-10T07:55:13.372Z,2.00
2023-08-10T07:56:13.262Z,1.80
2023-08-10T07:57:13.254Z,2.00
2023-08-10T07:58:13.241Z,1.50
2023-08-10T07:59:13.240Z,2.60
2023-08-10T08:00:13.207Z,1.90
2023-08-10T08:01:13.279Z,2.30
2023-08-10T08:02:13.263Z,2.60
2023-08-10T08:03:13.279Z,2.10
2023-08-10T08:04:13.406Z,1.90
2023-08-10T08:05:13.188Z,1.90
2023-08-10T08:06:13.140Z,2.00
2023-08-10T08:07:13.150Z,1.90
2023-08-10T08:08:13.107Z,2.20
2023-08-10T08:09:13.115Z,2.10
2023-08-10T08:10:13.143Z,1.90
2023-08-10T08:11:13.102Z,2.20
2023-08-10T08:12:13.076Z,2.20
2023-08-10T08:13:13.055Z,2.40
2023-08-10T08:14:13.014Z,2.00
2023-08-10T08:15:13.058Z,2.20
2023-08-10T08:16:13.020Z,2.70
2023-08-10T08:17:13.004Z,2.30
2023-08-10T08:18:13.035Z,2.10
2023-08-10T08:19:12.975Z,2.60
2023-08-10T08:20:12.978Z,2.60
2023-08-10T08:21:12.946Z,2.50
2023-08-10T08:22:12.955Z,2.30
2023-08-10T08:23:13.018Z,2.50
2023-08-10T08:24:13.001Z,2.10
2023-08-10T08:25:12.911Z,2.20
2023-08-10T08:26:12.969Z,2.30
2023-08-10T08:27:12.874Z,2.40
2023-08-10T08:28:12.861Z,2.50
2023-08-10T08:29:12.876Z,3.40
2023-08-10T08:30:12.868Z,2.70
2023-08-10T08:31:12.864Z,2.70
2023-08-10T08:32:22.298Z,2.30
2023-08-10T08:33:13.808Z,2.50
2023-08-10T08:34:12.802Z,2.40
2023-08-10T08:35:12.811Z,2.80
2023-08-10T08:36:12.835Z,2.20
2023-08-10T08:37:12.777Z,2.90
2023-08-10T08:38:12.732Z,2.50
2023-08-10T08:39:12.705Z,2.60
2023-08-10T08:40:12.726Z,3.10
2023-08-10T08:41:12.681Z,2.70
2023-08-10T08:42:12.688Z,2.50
2023-08-10T08:43:12.666Z,2.40
2023-08-10T08:44:12.675Z,2.60
2023-08-10T08:45:12.644Z,2.50
2023-08-10T08:46:12.701Z,3.00
2023-08-10T08:47:12.655Z,2.90
2023-08-10T08:48:12.666Z,3.40
2023-08-10T08:49:12.605Z,3.70
2023-08-10T08:50:12.637Z,2.90
2023-08-10T08:51:12.713Z,2.80
2023-08-10T08:52:12.545Z,2.70
2023-08-10T08:53:12.538Z,2.90
2023-08-10T08:54:12.530Z,3.20
2023-08-10T08:55:12.518Z,3.80
2023-08-10T08:56:12.545Z,3.20
2023-08-10T08:57:12.499Z,4.20
2023-08-10T08:58:12.457Z,4.50
2023-08-10T08:59:12.480Z,4.30
2023-08-10T09:00:12.439Z,5.20
2023-08-10T09:01:13.478Z,4.30
2023-08-10T09:02:17.952Z,4.30
2023-08-10T09:03:13.481Z,4.40
2023-08-10T09:04:12.618Z,4.40
2023-08-10T09:05:12.346Z,4.10
2023-08-10T09:06:12.399Z,4.10
2023-08-10T09:07:12.384Z,4.20
2023-08-10T09:08:12.306Z,3.70
2023-08-10T09:09:12.309Z,4.50
2023-08-10T09:10:12.297Z,4.00
2023-08-10T09:11:12.273Z,3.80
2023-08-10T09:12:12.300Z,4.10
2023-08-10T09:13:12.241Z,4.00
2023-08-10T09:14:12.236Z,3.90
2023-08-10T09:15:12.240Z,3.80
2023-08-10T09:16:12.310Z,3.90
2023-08-10T09:17:12.199Z,3.40
2023-08-10T09:18:12.216Z,3.80
2023-08-10T09:19:12.186Z,3.90
2023-08-10T09:20:12.262Z,3.80
2023-08-10T09:21:12.133Z,3.90
2023-08-10T09:22:12.111Z,3.60
2023-08-10T09:23:12.110Z,3.40
2023-08-10T09:24:12.222Z,3.20
2023-08-10T09:25:12.104Z,3.10
2023-08-10T09:26:12.105Z,2.90
2023-08-10T09:27:12.112Z,3.00
2023-08-10T09:28:12.066Z,2.30
2023-08-10T09:29:12.048Z,2.80
2023-08-10T09:30:12.030Z,2.80
2023-08-10T09:31:14.868Z,2.50
2023-08-10T09:32:12.011Z,3.00
2023-08-10T09:33:12.004Z,3.40
2023-08-10T09:34:11.990Z,2.80
2023-08-10T09:35:11.959Z,2.70
2023-08-10T09:36:11.961Z,3.10
2023-08-10T09:37:14.176Z,2.80
2023-08-10T09:38:11.922Z,2.70
2023-08-10T09:39:14.648Z,2.50
2023-08-10T09:40:11.869Z,2.60
2023-08-10T09:41:11.934Z,2.90
2023-08-10T09:42:11.913Z,2.60
2023-08-10T09:43:12.692Z,2.20
2023-08-10T09:44:11.844Z,2.50
2023-08-10T09:45:11.826Z,2.90
2023-08-10T09:46:11.889Z,3.70
2023-08-10T09:47:11.830Z,3.00
2023-08-10T09:48:18.482Z,2.50
2023-08-10T09:49:13.933Z,2.60
2023-08-10T09:50:11.772Z,2.90
2023-08-10T09:51:11.777Z,3.60
2023-08-10T09:52:11.741Z,3.60
2023-08-10T09:53:11.710Z,3.50
2023-08-10T09:54:11.704Z,3.60
2023-08-10T09:55:12.583Z,3.80
2023-08-10T09:56:11.777Z,3.90
2023-08-10T09:57:11.755Z,3.60
2023-08-10T09:58:11.641Z,3.60
2023-08-10T09:59:11.625Z,3.60
2023-08-10T10:00:11.595Z,3.90
2023-08-10T10:01:15.857Z,3.60
2023-08-10T10:02:12.592Z,3.50
2023-08-10T10:03:11.591Z,3.00
2023-08-10T10:04:11.650Z,2.30
2023-08-10T10:05:16.662Z,1.90
2023-08-10T10:06:12.550Z,2.10
2023-08-10T10:07:13.780Z,1.90
2023-08-10T10:08:11.512Z,1.90
2023-08-10T10:09:11.498Z,2.60
2023-08-10T10:10:11.478Z,1.80
2023-08-10T10:11:11.506Z,1.70
2023-08-10T10:12:11.462Z,1.70
2023-08-10T10:13:12.387Z,1.30
2023-08-10T10:14:11.424Z,1.50
2023-08-10T10:15:11.418Z,1.30
2023-08-10T10:16:11.540Z,1.40
2023-08-10T10:17:11.385Z,1.20
2023-08-10T10:18:11.461Z,1.10
2023-08-10T10:19:13.331Z,1.10
2023-08-10T10:20:11.369Z,1.00
2023-08-10T10:21:11.362Z,1.40
2023-08-10T10:22:11.330Z,1.40
2023-08-10T10:23:11.303Z,1.20
2023-08-10T10:24:11.313Z,1.50
2023-08-10T10:25:11.965Z,1.10
2023-08-10T10:26:13.036Z,1.50
2023-08-10T10:27:11.252Z,1.30
2023-08-10T10:28:11.238Z,1.20
2023-08-10T10:29:11.243Z,1.30
2023-08-10T10:30:11.311Z,1.30
2023-08-10T10:31:13.260Z,1.10
2023-08-10T10:32:11.178Z,1.50
2023-08-10T10:33:11.267Z,1.10
2023-08-10T10:34:11.181Z,0.90
2023-08-10T10:35:11.159Z,1.00
2023-08-10T10:36:21.342Z,1.30
2023-08-10T10:37:12.447Z,0.90
2023-08-10T10:38:11.114Z,1.10
2023-08-10T10:39:11.148Z,1.20
2023-08-10T10:40:11.096Z,1.10
2023-08-10T10:41:11.084Z,1.10
2023-08-10T10:42:11.049Z,1.20
2023-08-10T10:43:11.094Z,0.80
2023-08-10T10:44:11.037Z,0.90
2023-08-10T10:45:11.043Z,0.90
2023-08-10T10:46:11.007Z,1.20
2023-08-10T10:47:10.993Z,1.00
2023-08-10T10:48:10.971Z,0.80
2023-08-10T10:49:10.986Z,1.00
2023-08-10T10:50:10.936Z,0.90
2023-08-10T10:51:10.936Z,1.00
2023-08-10T10:52:11.242Z,1.10
2023-08-10T10:53:10.939Z,0.90
2023-08-10T10:54:10.939Z,1.00
2023-08-10T10:55:10.911Z,0.90
2023-08-10T10:56:10.858Z,1.20
2023-08-10T10:57:10.860Z,1.20
2023-08-10T10:58:10.840Z,1.00
2023-08-10T10:59:10.856Z,1.00
2023-08-10T11:00:10.824Z,1.20
2023-08-10T11:01:10.810Z,0.90
2023-08-10T11:02:10.883Z,1.00
2023-08-10T11:03:10.853Z,1.20
2023-08-10T11:04:10.773Z,1.10
2023-08-10T11:05:10.786Z,1.00
2023-08-10T11:06:11.261Z,1.00
2023-08-10T11:07:10.750Z,1.30
2023-08-10T11:08:10.759Z,1.30
2023-08-10T11:09:10.845Z,0.90
2023-08-10T11:10:10.717Z,1.20
2023-08-10T11:11:10.710Z,0.80
2023-08-10T11:12:10.694Z,1.20
2023-08-10T11:13:10.653Z,0.90
2023-08-10T11:14:10.639Z,1.30
2023-08-10T11:15:10.625Z,1.20
2023-08-10T11:16:10.676Z,1.30
2023-08-10T11:17:11.651Z,1.10
2023-08-10T11:18:10.861Z,0.90
2023-08-10T11:19:10.592Z,1.50
2023-08-10T11:20:10.580Z,1.00
2023-08-10T11:21:10.662Z,1.30
2023-08-10T11:22:10.550Z,1.20
2023-08-10T11:23:10.547Z,1.10
2023-08-10T11:24:10.505Z,1.20
2023-08-10T11:25:10.601Z,1.30
2023-08-10T11:26:10.542Z,1.20
2023-08-10T11:27:10.489Z,0.90
2023-08-10T11:28:10.468Z,1.10
2023-08-10T11:29:10.549Z,1.20
2023-08-10T11:30:10.569Z,1.00
2023-08-10T11:31:10.513Z,1.30
2023-08-10T11:32:11.004Z,1.20
2023-08-10T11:33:12.159Z,1.10
2023-08-10T11:34:10.444Z,0.80
2023-08-10T11:35:12.815Z,0.80
2023-08-10T11:36:10.339Z,1.00
2023-08-10T11:37:10.358Z,0.90
2023-08-10T11:38:10.367Z,1.00
2023-08-10T11:39:10.346Z,1.00
2023-08-10T11:40:10.517Z,1.10
2023-08-10T11:41:15.069Z,0.90
2023-08-10T11:42:10.332Z,1.10
2023-08-10T11:43:10.343Z,1.00
2023-08-10T11:44:10.265Z,1.00
2023-08-10T11:45:10.300Z,1.00
2023-08-10T11:46:10.287Z,1.00
2023-08-10T11:47:10.221Z,0.80
2023-08-10T11:48:10.238Z,0.90
2023-08-10T11:49:10.174Z,1.00
2023-08-10T11:50:10.201Z,1.00
2023-08-10T11:51:10.252Z,1.10
2023-08-10T11:52:11.083Z,0.90
2023-08-10T11:53:10.129Z,1.10
2023-08-10T11:54:10.144Z,1.10
2023-08-10T11:55:10.115Z,1.00
2023-08-10T11:56:10.112Z,1.10
2023-08-10T11:57:10.060Z,1.10
2023-08-10T11:58:11.020Z,1.00
2023-08-10T11:59:10.079Z,1.10
2023-08-10T12:00:10.043Z,1.10
2023-08-10T12:01:10.060Z,1.10
2023-08-10T12:02:10.023Z,1.20
2023-08-10T12:03:09.990Z,1.20
2023-08-10T12:04:09.989Z,1.40
2023-08-10T12:05:09.982Z,1.20
2023-08-10T12:06:10.099Z,1.10
2023-08-10T12:07:09.946Z,1.10
2023-08-10T12:08:09.967Z,1.10
2023-08-10T12:09:09.921Z,1.20
2023-08-10T12:10:09.909Z,1.00
2023-08-10T12:11:09.920Z,1.40
2023-08-10T12:12:09.928Z,1.20
2023-08-10T12:13:09.889Z,1.10
2023-08-10T12:14:09.889Z,1.10
2023-08-10T12:15:09.881Z,1.00
2023-08-10T12:16:09.901Z,1.10
2023-08-10T12:17:09.805Z,0.90
2023-08-10T12:18:09.869Z,1.10
2023-08-10T12:19:09.907Z,1.40
2023-08-10T12:20:09.773Z,1.30
2023-08-10T12:21:09.811Z,1.30
2023-08-10T12:22:09.788Z,1.40
2023-08-10T12:23:09.795Z,1.00
2023-08-10T12:24:09.734Z,1.00
2023-08-10T12:25:09.764Z,1.10
2023-08-10T12:26:09.733Z,1.20
2023-08-10T12:27:09.656Z,1.20
2023-08-10T12:28:09.722Z,1.10
2023-08-10T12:29:09.665Z,1.30
2023-08-10T12:30:09.658Z,1.00
2023-08-10T12:31:09.969Z,1.20
2023-08-10T12:32:10.573Z,1.10
2023-08-10T12:33:09.637Z,1.40
2023-08-10T12:34:09.587Z,1.30
2023-08-10T12:35:09.620Z,1.00
2023-08-10T12:36:09.654Z,0.90
2023-08-10T12:37:09.598Z,1.00
2023-08-10T12:38:09.548Z,0.80
2023-08-10T12:39:09.579Z,0.80
2023-08-10T12:40:09.540Z,0.90
2023-08-10T12:41:09.518Z,1.00
2023-08-10T12:42:09.479Z,1.10
2023-08-10T12:43:09.467Z,0.80
2023-08-10T12:44:09.493Z,1.00
2023-08-10T12:45:09.454Z,1.00
2023-08-10T12:46:09.497Z,0.90
2023-08-10T12:47:09.474Z,1.10
2023-08-10T12:48:09.445Z,1.00
2023-08-10T12:49:09.387Z,1.00
2023-08-10T12:50:09.401Z,1.10
2023-08-10T12:51:09.380Z,1.00
2023-08-10T12:52:09.394Z,1.10
2023-08-10T12:53:09.339Z,1.00
2023-08-10T12:54:09.347Z,1.00
2023-08-10T12:55:09.375Z,1.10
2023-08-10T12:56:10.581Z,1.00
2023-08-10T12:57:09.307Z,0.90
2023-08-10T12:58:09.300Z,1.20
2023-08-10T12:59:09.297Z,0.90
2023-08-10T13:00:09.307Z,1.10
2023-08-10T13:01:09.287Z,1.20
2023-08-10T13:02:11.991Z,0.90
2023-08-10T13:03:09.306Z,1.00
2023-08-10T13:04:09.249Z,1.20
2023-08-10T13:05:09.228Z,1.10
2023-08-10T13:06:09.235Z,1.00
2023-08-10T13:07:09.161Z,1.00
2023-08-10T13:08:09.244Z,0.90
2023-08-10T13:09:09.243Z,0.90
2023-08-10T13:10:09.146Z,1.00
2023-08-10T13:11:09.130Z,0.80
2023-08-10T13:12:09.370Z,0.70
2023-08-10T13:13:09.104Z,1.00
2023-08-10T13:14:09.173Z,1.00
2023-08-10T13:15:09.091Z,1.00
2023-08-10T13:16:09.118Z,0.90
2023-08-10T13:17:09.073Z,1.10
2023-08-10T13:18:09.080Z,1.20
2023-08-10T13:19:09.049Z,1.30
2023-08-10T13:20:09.057Z,1.00
2023-08-10T13:21:09.094Z,1.20
2023-08-10T13:22:09.280Z,1.20
2023-08-10T13:23:08.990Z,0.90
2023-08-10T13:24:08.995Z,1.20
2023-08-10T13:25:08.925Z,1.10
2023-08-10T13:26:09.050Z,1.00
2023-08-10T13:27:08.900Z,1.10
2023-08-10T13:28:09.144Z,1.00
2023-08-10T13:29:08.998Z,0.80
2023-08-10T13:30:08.857Z,0.80
2023-08-10T13:31:08.902Z,1.00
2023-08-10T13:32:08.980Z,0.90
2023-08-10T13:33:08.842Z,1.00
2023-08-10T13:34:08.844Z,0.80